KMWH/MWH METAR and TAF weather

Enter ICAO airport designator
Station Type Date Time Source
KMWH METAR 2021/10/20 06:52 UTC NOAA

KMWH 200652Z 01008KT 10SM CLR 09/03 A2977 RMK AO2 SLP081 T00890033


Station Type Date Time Source
KMWH Decoded METAR 2021/10/20 06:52 UTC NOAA

GRANT COUNTY AIRPORT, WA, United States (KMWH) 47-12N 119-19W 362M
Oct 20, 2021 - 02:52 AM EDT / 2021.10.20 0652 UTC
Wind: from the N (010 degrees) at 9 MPH (8 KT):0
Visibility: 10 mile(s):0
Sky conditions: clear
Temperature: 48.0 F (8.9 C)
Dew Point: 37.9 F (3.3 C)
Relative Humidity: 67%
Pressure (altimeter): 29.77 in. Hg (1008 hPa)
ob: KMWH 200652Z 01008KT 10SM CLR 09/03 A2977 RMK AO2 SLP081 T00890033
cycle: 7

Station Type Date Time Source
KMWH TAF 2021/10/20 06:22 UTC NOAA

TAF KMWH 200520Z 2006/2106 01006KT P6SM SCT150 BKN200
FM201200 01006KT P6SM VCSH BKN100 OVC130
FM201500 15008KT P6SM OVC060 PROB30 2015/2018 -RA
FM202100 20010KT P6SM BKN060
FM210300 VRB04KT P6SM BKN200

Example: see airport list